createdAt,value
2022-12-03T00:00:51.442Z,18.40
2022-12-03T00:03:18.772Z,18.37
2022-12-03T00:05:49.233Z,17.30
2022-12-03T00:08:16.633Z,18.57
2022-12-03T00:10:43.386Z,16.80
2022-12-03T00:13:10.091Z,17.80
2022-12-03T00:15:36.868Z,16.30
2022-12-03T00:18:04.696Z,17.87
2022-12-03T00:20:31.377Z,15.97
2022-12-03T00:22:58.122Z,17.67
2022-12-03T00:25:24.972Z,18.03
2022-12-03T00:27:51.687Z,18.40
2022-12-03T00:30:18.641Z,17.93
2022-12-03T00:32:46.059Z,17.50
2022-12-03T00:35:12.833Z,17.27
2022-12-03T00:37:39.684Z,18.27
2022-12-03T00:40:07.228Z,17.73
2022-12-03T00:42:34.591Z,17.43
2022-12-03T00:45:01.455Z,16.97
2022-12-03T00:47:28.225Z,14.23
2022-12-03T00:49:55.242Z,17.20
2022-12-03T00:52:21.974Z,14.27
2022-12-03T00:54:50.185Z,13.23
2022-12-03T00:57:17.145Z,16.20
2022-12-03T00:59:43.877Z,16.00
2022-12-03T01:02:10.637Z,15.90
2022-12-03T01:04:37.734Z,16.83
2022-12-03T01:07:05.742Z,16.73
2022-12-03T01:09:32.637Z,16.63
2022-12-03T01:11:59.554Z,16.97
2022-12-03T01:14:26.461Z,17.17
2022-12-03T01:16:53.245Z,17.03
2022-12-03T01:19:21.476Z,16.73
2022-12-03T01:21:51.195Z,16.13
2022-12-03T01:24:19.031Z,16.43
2022-12-03T01:26:47.337Z,15.50
2022-12-03T01:29:15.429Z,14.23
2022-12-03T01:32:01.157Z,16.67
2022-12-03T01:34:28.103Z,16.60
2022-12-03T01:36:55.509Z,16.23
2022-12-03T01:39:22.399Z,16.10
2022-12-03T01:41:51.630Z,16.50
2022-12-03T01:44:28.969Z,18.13
2022-12-03T01:46:58.946Z,16.40
2022-12-03T01:49:53.546Z,16.47
2022-12-03T01:52:24.594Z,18.60
2022-12-03T01:54:56.058Z,15.93
2022-12-03T01:57:46.187Z,16.10
2022-12-03T02:00:19.268Z,17.50
2022-12-03T02:02:53.809Z,16.27
2022-12-03T02:05:23.632Z,17.77
2022-12-03T02:07:52.223Z,17.00
2022-12-03T02:10:24.696Z,17.23
2022-12-03T02:13:02.968Z,15.87
2022-12-03T02:15:29.727Z,17.93
2022-12-03T02:17:57.726Z,16.80
2022-12-03T02:20:24.863Z,17.17
2022-12-03T02:23:26.105Z,16.37
2022-12-03T02:25:52.893Z,16.13
2022-12-03T02:28:20.879Z,15.23
2022-12-03T02:30:47.642Z,16.37
2022-12-03T02:33:14.577Z,16.37
2022-12-03T02:35:41.533Z,16.87
2022-12-03T02:38:18.173Z,16.93
2022-12-03T02:40:47.344Z,16.77
2022-12-03T02:43:16.536Z,16.03
2022-12-03T02:45:46.558Z,14.93
2022-12-03T02:48:35.723Z,16.50
2022-12-03T02:51:09.211Z,16.93
2022-12-03T02:53:44.589Z,15.80
2022-12-03T02:56:16.133Z,16.13
2022-12-03T02:58:45.274Z,15.17
2022-12-03T03:01:12.377Z,15.80
2022-12-03T03:03:40.233Z,13.57
2022-12-03T03:06:08.820Z,15.30
2022-12-03T03:08:38.023Z,15.90
2022-12-03T03:11:06.311Z,15.23
2022-12-03T03:13:36.244Z,14.10
2022-12-03T03:16:05.074Z,14.20
2022-12-03T03:18:33.344Z,15.70
2022-12-03T03:21:00.349Z,16.23
2022-12-03T03:23:27.197Z,16.13
2022-12-03T03:26:04.427Z,13.73
2022-12-03T03:28:34.804Z,16.87
2022-12-03T03:31:03.511Z,15.07
2022-12-03T03:33:30.854Z,14.60
2022-12-03T03:36:00.524Z,13.90
2022-12-03T03:38:29.249Z,17.27
2022-12-03T03:40:58.381Z,15.23
2022-12-03T03:43:25.496Z,14.40
2022-12-03T03:45:53.791Z,16.43
2022-12-03T03:48:22.170Z,15.20
2022-12-03T03:50:51.632Z,15.97
2022-12-03T03:53:20.048Z,16.57
2022-12-03T03:55:47.118Z,16.07
2022-12-03T03:58:14.060Z,16.97
2022-12-03T04:00:45.553Z,16.70
2022-12-03T04:03:12.854Z,16.90
2022-12-03T04:05:40.639Z,16.20
2022-12-03T04:08:08.359Z,16.27
2022-12-03T04:10:53.713Z,16.67
2022-12-03T04:13:20.541Z,15.43
2022-12-03T04:15:47.865Z,16.70
2022-12-03T04:18:33.899Z,16.30
2022-12-03T04:21:19.363Z,15.63
2022-12-03T04:23:46.128Z,14.73
2022-12-03T04:26:31.432Z,16.63
2022-12-03T04:28:58.224Z,17.27
2022-12-03T04:31:43.474Z,16.20
2022-12-03T04:34:29.349Z,15.30
2022-12-03T04:36:56.097Z,16.37
2022-12-03T04:39:23.436Z,15.03
2022-12-03T04:41:50.554Z,15.57
2022-12-03T04:44:35.616Z,17.17
2022-12-03T04:47:19.266Z,16.93
2022-12-03T04:49:51.266Z,15.93
2022-12-03T04:52:20.600Z,15.73
2022-12-03T04:54:47.602Z,16.47
2022-12-03T04:57:14.460Z,16.50
2022-12-03T04:59:41.380Z,17.23
2022-12-03T05:02:08.714Z,17.30
2022-12-03T05:04:35.772Z,16.37
2022-12-03T05:07:02.460Z,16.90
2022-12-03T05:09:29.334Z,17.07
2022-12-03T05:11:56.433Z,16.00
2022-12-03T05:14:23.700Z,17.70
2022-12-03T05:16:50.804Z,17.27
2022-12-03T05:19:17.549Z,17.27
2022-12-03T05:21:44.252Z,17.60
2022-12-03T05:24:11.558Z,19.00
2022-12-03T05:26:38.709Z,15.67
2022-12-03T05:29:05.716Z,18.00
2022-12-03T05:31:32.402Z,17.70
2022-12-03T05:33:59.156Z,19.70
2022-12-03T05:36:25.888Z,19.00
2022-12-03T05:38:52.910Z,17.20
2022-12-03T05:41:38.632Z,17.63
2022-12-03T05:44:05.475Z,17.83
2022-12-03T05:46:33.051Z,18.03
2022-12-03T05:48:59.886Z,19.07
2022-12-03T05:51:26.840Z,19.37
2022-12-03T05:53:54.073Z,18.43
2022-12-03T05:56:21.098Z,19.57
2022-12-03T05:58:47.780Z,21.77
2022-12-03T06:01:14.493Z,19.67
2022-12-03T06:03:41.289Z,18.43
2022-12-03T06:06:08.961Z,18.97
2022-12-03T06:08:36.048Z,18.13
2022-12-03T06:11:02.842Z,19.87
2022-12-03T06:13:29.616Z,19.60
2022-12-03T06:15:56.424Z,17.60
2022-12-03T06:18:24.126Z,20.17
2022-12-03T06:20:51.135Z,18.40
2022-12-03T06:23:17.905Z,19.37
2022-12-03T06:25:44.590Z,19.83
2022-12-03T06:28:11.361Z,20.33
2022-12-03T06:30:38.429Z,16.33
2022-12-03T06:33:05.165Z,18.27
2022-12-03T06:35:31.977Z,17.43
2022-12-03T06:37:58.781Z,19.97
2022-12-03T06:40:26.102Z,21.57
2022-12-03T06:42:53.589Z,22.70
2022-12-03T06:45:20.286Z,26.33
2022-12-03T06:47:47.191Z,19.63
2022-12-03T06:50:13.977Z,19.50
2022-12-03T06:52:40.844Z,18.37
2022-12-03T06:55:09.316Z,19.27
2022-12-03T06:57:36.408Z,19.73
2022-12-03T07:00:05.846Z,20.10
2022-12-03T07:02:32.564Z,19.30
2022-12-03T07:04:59.417Z,18.83
2022-12-03T07:07:26.206Z,17.63
2022-12-03T07:09:53.534Z,19.23
2022-12-03T07:12:20.461Z,17.37
2022-12-03T07:14:47.221Z,16.60
2022-12-03T07:17:14.088Z,18.23
2022-12-03T07:19:40.861Z,19.93
2022-12-03T07:22:08.400Z,20.70
2022-12-03T07:24:35.209Z,15.73
2022-12-03T07:27:01.888Z,16.37
2022-12-03T07:29:29.503Z,19.70
2022-12-03T07:31:56.383Z,16.37
2022-12-03T07:34:23.984Z,16.30
2022-12-03T07:36:50.704Z,17.33
2022-12-03T07:39:17.436Z,18.73
2022-12-03T07:41:44.286Z,18.00
2022-12-03T07:44:14.748Z,17.57
2022-12-03T07:46:42.309Z,19.43
2022-12-03T07:49:10.258Z,18.47
2022-12-03T07:51:36.995Z,14.77
2022-12-03T07:54:04.171Z,17.40
2022-12-03T07:56:30.860Z,18.80
2022-12-03T07:58:58.329Z,17.50
2022-12-03T08:01:25.776Z,17.90
2022-12-03T08:03:53.161Z,14.83
2022-12-03T08:06:20.474Z,14.13
2022-12-03T08:08:47.195Z,16.20
2022-12-03T08:11:15.185Z,17.50
2022-12-03T08:13:42.121Z,16.30
2022-12-03T08:16:19.171Z,17.07
2022-12-03T08:18:47.055Z,15.63
2022-12-03T08:21:16.233Z,17.23
2022-12-03T08:23:43.628Z,16.80
2022-12-03T08:26:30.776Z,17.50
2022-12-03T08:28:57.753Z,16.70
2022-12-03T08:31:32.649Z,15.77
2022-12-03T08:34:13.527Z,15.47
2022-12-03T08:36:41.082Z,14.07
2022-12-03T08:39:30.262Z,16.63
2022-12-03T08:42:27.370Z,15.83
2022-12-03T08:44:56.213Z,16.63
2022-12-03T08:47:25.554Z,16.33
2022-12-03T08:50:24.296Z,16.63
2022-12-03T08:52:52.902Z,15.30
2022-12-03T08:55:39.690Z,16.67
2022-12-03T08:58:36.756Z,17.10
2022-12-03T09:01:12.833Z,16.10
2022-12-03T09:03:47.799Z,15.80
2022-12-03T09:06:14.930Z,15.90
2022-12-03T09:08:41.606Z,16.23
2022-12-03T09:11:10.023Z,16.90
2022-12-03T09:13:36.772Z,16.87
2022-12-03T09:16:03.751Z,16.60
2022-12-03T09:18:30.766Z,13.70
2022-12-03T09:21:00.714Z,16.47
2022-12-03T09:23:27.681Z,16.87
2022-12-03T09:25:55.182Z,15.13
2022-12-03T09:28:21.990Z,15.13
2022-12-03T09:30:48.813Z,14.30
2022-12-03T09:33:15.692Z,16.30
2022-12-03T09:35:42.580Z,14.77
2022-12-03T09:38:10.281Z,16.10
2022-12-03T09:40:37.142Z,16.13
2022-12-03T09:43:04.547Z,15.10
2022-12-03T09:45:31.516Z,14.67
2022-12-03T09:48:01.643Z,15.47
2022-12-03T09:50:28.674Z,15.43
2022-12-03T09:53:00.186Z,15.70
2022-12-03T09:55:28.607Z,13.80
2022-12-03T09:57:57.273Z,14.93
2022-12-03T10:00:29.586Z,16.37
2022-12-03T10:03:01.962Z,11.73
2022-12-03T10:05:29.442Z,15.27
2022-12-03T10:08:05.289Z,16.40
2022-12-03T10:10:33.432Z,16.00
2022-12-03T10:13:00.646Z,15.73
2022-12-03T10:15:27.431Z,13.60
2022-12-03T10:17:57.457Z,15.00
2022-12-03T10:20:27.440Z,15.87
2022-12-03T10:22:55.685Z,15.87
2022-12-03T10:25:23.456Z,15.33
2022-12-03T10:28:02.221Z,14.80
2022-12-03T10:30:30.132Z,16.30
2022-12-03T10:33:02.671Z,16.37
2022-12-03T10:35:38.516Z,14.63
2022-12-03T10:38:08.461Z,17.40
2022-12-03T10:40:37.523Z,16.70
2022-12-03T10:43:19.445Z,16.63
2022-12-03T10:45:47.687Z,16.37
2022-12-03T10:48:20.241Z,15.10
2022-12-03T10:50:48.368Z,15.27
2022-12-03T10:53:15.806Z,15.10
2022-12-03T10:55:45.070Z,16.90
2022-12-03T10:58:20.530Z,15.10
2022-12-03T11:00:47.981Z,11.47
2022-12-03T11:03:23.931Z,15.13
2022-12-03T11:05:51.997Z,13.10
2022-12-03T11:08:30.924Z,12.77
2022-12-03T11:11:04.783Z,12.40
2022-12-03T11:13:34.214Z,15.50
2022-12-03T11:16:03.220Z,11.97
2022-12-03T11:18:35.940Z,13.00
2022-12-03T11:21:02.684Z,14.10
2022-12-03T11:23:45.128Z,15.23
2022-12-03T11:26:18.876Z,14.10
2022-12-03T11:28:46.560Z,13.27
2022-12-03T11:31:35.811Z,11.70
2022-12-03T11:34:20.857Z,14.67
2022-12-03T11:37:09.359Z,13.47
2022-12-03T11:40:22.384Z,12.97
2022-12-03T11:42:49.663Z,13.37
2022-12-03T11:45:23.287Z,9.67
2022-12-03T11:47:59.230Z,12.93
2022-12-03T11:50:42.115Z,14.10
2022-12-03T11:53:21.837Z,12.80
2022-12-03T11:56:06.265Z,13.47
2022-12-03T11:58:34.708Z,13.57
2022-12-03T12:01:04.238Z,15.03
2022-12-03T12:03:35.046Z,16.30
2022-12-03T12:06:07.003Z,16.20
2022-12-03T12:08:51.756Z,15.80
2022-12-03T12:11:40.495Z,16.10
2022-12-03T12:14:13.174Z,14.80
2022-12-03T12:16:43.132Z,15.00
2022-12-03T12:19:28.742Z,16.27
2022-12-03T12:21:57.352Z,15.00
2022-12-03T12:24:40.659Z,15.07
2022-12-03T12:27:19.490Z,14.53
2022-12-03T12:29:58.401Z,17.07
2022-12-03T12:32:44.342Z,17.63
2022-12-03T12:35:21.860Z,13.63
2022-12-03T12:37:59.953Z,16.37
2022-12-03T12:40:31.138Z,15.53
2022-12-03T12:43:05.616Z,18.23
2022-12-03T12:45:39.375Z,17.87
2022-12-03T12:48:21.176Z,13.03
2022-12-03T12:50:58.310Z,14.53
2022-12-03T12:53:28.868Z,14.83
2022-12-03T12:56:02.563Z,15.20
2022-12-03T12:58:32.634Z,15.20
2022-12-03T13:01:07.937Z,15.27
2022-12-03T13:03:39.785Z,15.73
2022-12-03T13:06:07.360Z,15.20
2022-12-03T13:08:39.889Z,14.63
2022-12-03T13:11:25.005Z,15.97
2022-12-03T13:13:52.161Z,14.83
2022-12-03T13:16:30.959Z,15.47
2022-12-03T13:19:01.742Z,17.13
2022-12-03T13:21:40.691Z,16.20
2022-12-03T13:24:26.013Z,17.23
2022-12-03T13:26:52.822Z,16.53
2022-12-03T13:29:22.642Z,15.47
2022-12-03T13:32:01.822Z,14.40
2022-12-03T13:34:33.453Z,16.83
2022-12-03T13:37:02.117Z,17.57
2022-12-03T13:39:35.141Z,16.80
2022-12-03T13:42:27.628Z,17.60
2022-12-03T13:44:55.009Z,16.97
2022-12-03T13:47:23.586Z,17.97
2022-12-03T13:50:04.249Z,14.80
2022-12-03T13:52:32.989Z,17.87
2022-12-03T13:55:02.901Z,18.50
2022-12-03T13:57:29.627Z,18.67
2022-12-03T13:59:56.951Z,19.30
2022-12-03T14:02:25.053Z,18.87
2022-12-03T14:04:56.790Z,17.43
2022-12-03T14:07:26.704Z,18.20
2022-12-03T14:09:54.178Z,18.37
2022-12-03T14:12:26.702Z,19.07
2022-12-03T14:14:53.838Z,19.53
2022-12-03T14:17:20.755Z,19.03
2022-12-03T14:19:47.485Z,18.63
2022-12-03T14:22:14.819Z,17.57
2022-12-03T14:24:41.746Z,18.53
2022-12-03T14:27:08.426Z,17.30
2022-12-03T14:29:35.124Z,18.83
2022-12-03T14:32:02.688Z,19.70
2022-12-03T14:34:29.978Z,18.97
2022-12-03T14:36:56.927Z,18.43
2022-12-03T14:39:23.722Z,18.37
2022-12-03T14:42:08.635Z,19.20
2022-12-03T14:44:35.392Z,17.30
2022-12-03T14:47:02.440Z,18.37
2022-12-03T14:49:30.090Z,17.60
2022-12-03T14:51:57.054Z,19.00
2022-12-03T14:54:23.907Z,17.53
2022-12-03T14:56:50.788Z,18.43
2022-12-03T14:59:20.698Z,17.03
2022-12-03T15:01:52.555Z,19.70
2022-12-03T15:04:19.560Z,17.37
2022-12-03T15:06:46.646Z,20.17
2022-12-03T15:09:13.809Z,22.60
2022-12-03T15:11:45.912Z,19.63
2022-12-03T15:14:13.962Z,23.07
2022-12-03T15:16:41.180Z,24.47
2022-12-03T15:19:07.947Z,20.67
2022-12-03T15:21:35.165Z,17.30
2022-12-03T15:24:02.942Z,19.60
2022-12-03T15:26:30.522Z,21.47
2022-12-03T15:28:57.414Z,20.17
2022-12-03T15:31:24.183Z,16.77
2022-12-03T15:33:50.927Z,18.70
2022-12-03T15:36:17.964Z,18.03
2022-12-03T15:38:45.326Z,18.03
2022-12-03T15:41:21.833Z,18.20
2022-12-03T15:43:49.787Z,18.43
2022-12-03T15:46:19.237Z,19.90
2022-12-03T15:48:46.814Z,20.70
2022-12-03T15:51:15.245Z,18.97
2022-12-03T15:53:42.813Z,20.23
2022-12-03T15:56:09.593Z,17.90
2022-12-03T15:58:36.311Z,17.43
2022-12-03T16:01:03.315Z,17.67
2022-12-03T16:03:30.945Z,16.73
2022-12-03T16:05:59.339Z,15.20
2022-12-03T16:08:27.197Z,18.00
2022-12-03T16:10:54.147Z,18.90
2022-12-03T16:13:20.874Z,17.60
2022-12-03T16:15:47.651Z,18.77
2022-12-03T16:18:15.616Z,18.17
2022-12-03T16:20:42.833Z,19.03
2022-12-03T16:23:09.617Z,17.07
2022-12-03T16:25:36.410Z,15.23
2022-12-03T16:28:03.667Z,17.23
2022-12-03T16:30:31.102Z,17.90
2022-12-03T16:32:57.865Z,17.53
2022-12-03T16:35:24.643Z,16.40
2022-12-03T16:37:51.326Z,16.47
2022-12-03T16:40:18.703Z,16.77
2022-12-03T16:42:45.940Z,19.20
2022-12-03T16:45:33.658Z,19.93
2022-12-03T16:48:01.657Z,16.30
2022-12-03T16:50:30.170Z,16.50
2022-12-03T16:52:58.069Z,19.03
2022-12-03T16:55:25.420Z,19.53
2022-12-03T16:57:52.112Z,17.90
2022-12-03T17:00:22.010Z,15.47
2022-12-03T17:02:49.031Z,18.27
2022-12-03T17:05:16.343Z,17.53
2022-12-03T17:07:43.218Z,18.20
2022-12-03T17:10:10.611Z,16.43
2022-12-03T17:13:07.682Z,16.90
2022-12-03T17:15:24.136Z,17.83
2022-12-03T17:17:50.943Z,17.17
2022-12-03T17:20:18.198Z,19.03
2022-12-03T17:22:45.300Z,15.57
2022-12-03T17:25:12.802Z,18.70
2022-12-03T17:27:44.822Z,17.20
2022-12-03T17:30:13.629Z,16.30
2022-12-03T17:32:40.653Z,18.80
2022-12-03T17:35:08.492Z,17.63
2022-12-03T17:37:35.592Z,17.83
2022-12-03T17:40:03.052Z,18.57
2022-12-03T17:42:30.615Z,17.77
2022-12-03T17:44:57.349Z,18.43
2022-12-03T17:47:24.585Z,16.93
2022-12-03T17:49:51.508Z,17.73
2022-12-03T17:52:18.561Z,18.20
2022-12-03T17:55:09.313Z,18.40
2022-12-03T17:57:32.302Z,19.63
2022-12-03T17:59:59.092Z,18.43
2022-12-03T18:02:25.858Z,19.17
2022-12-03T18:04:52.607Z,17.67
2022-12-03T18:07:19.710Z,18.53
2022-12-03T18:09:46.882Z,17.73
2022-12-03T18:12:13.663Z,19.27
2022-12-03T18:14:40.406Z,17.53
2022-12-03T18:17:07.213Z,18.47
2022-12-03T18:19:33.928Z,16.53
2022-12-03T18:22:01.376Z,17.67
2022-12-03T18:24:28.601Z,19.93
2022-12-03T18:26:55.301Z,19.47
2022-12-03T18:29:22.082Z,18.50
2022-12-03T18:31:48.876Z,17.03
2022-12-03T18:34:16.266Z,17.57
2022-12-03T18:36:43.593Z,17.67
2022-12-03T18:39:21.887Z,18.77
2022-12-03T18:41:48.654Z,18.40
2022-12-03T18:44:16.333Z,18.33
2022-12-03T18:46:58.899Z,18.20
2022-12-03T18:49:25.645Z,19.50
2022-12-03T18:51:58.866Z,18.30
2022-12-03T18:54:26.401Z,17.70
2022-12-03T18:56:53.135Z,19.37
2022-12-03T18:59:20.277Z,16.97
2022-12-03T19:01:47.906Z,18.23
2022-12-03T19:04:14.685Z,18.40
2022-12-03T19:06:41.644Z,17.37
2022-12-03T19:09:09.102Z,18.23
2022-12-03T19:11:36.350Z,17.80
2022-12-03T19:14:03.290Z,18.10
2022-12-03T19:16:31.407Z,18.73
2022-12-03T19:18:58.275Z,20.17
2022-12-03T19:21:28.296Z,18.40
2022-12-03T19:26:54.483Z,17.63
2022-12-03T19:29:35.591Z,17.50
2022-12-03T19:32:03.512Z,18.43
2022-12-03T19:34:31.561Z,19.43
2022-12-03T19:36:58.286Z,18.40
2022-12-03T19:39:25.066Z,17.17
2022-12-03T19:41:51.953Z,19.90
2022-12-03T19:44:19.528Z,21.37
2022-12-03T19:46:46.799Z,21.70
2022-12-03T19:49:13.989Z,18.87
2022-12-03T19:51:40.692Z,19.67
2022-12-03T19:54:10.472Z,17.33
2022-12-03T19:56:37.543Z,17.83
2022-12-03T19:59:05.733Z,22.53
2022-12-03T20:01:35.852Z,21.87
2022-12-03T20:04:04.032Z,19.87
2022-12-03T20:06:34.637Z,20.80
2022-12-03T20:09:06.165Z,18.97
2022-12-03T20:11:35.715Z,19.77
2022-12-03T20:14:08.411Z,21.23
2022-12-03T20:16:36.235Z,20.20
2022-12-03T20:19:07.145Z,20.20
2022-12-03T20:21:36.137Z,21.03
2022-12-03T20:24:04.912Z,19.07
2022-12-03T20:26:32.289Z,20.47
2022-12-03T20:28:59.478Z,19.10
2022-12-03T20:31:29.948Z,19.17
2022-12-03T20:33:59.811Z,19.80
2022-12-03T20:36:28.697Z,20.03
2022-12-03T20:39:05.131Z,17.87
2022-12-03T20:41:35.235Z,19.13
2022-12-03T20:44:03.393Z,18.33
2022-12-03T20:46:32.434Z,17.97
2022-12-03T20:48:59.757Z,19.20
2022-12-03T20:51:30.023Z,19.43
2022-12-03T20:53:57.691Z,17.43
2022-12-03T20:56:36.283Z,22.50
2022-12-03T20:59:07.668Z,19.40
2022-12-03T21:01:36.629Z,19.17
2022-12-03T21:04:05.665Z,21.33
2022-12-03T21:06:35.958Z,17.47
2022-12-03T21:09:06.975Z,18.07
2022-12-03T21:11:36.061Z,19.53
2022-12-03T21:14:04.506Z,17.80
2022-12-03T21:16:59.707Z,19.47
2022-12-03T21:19:22.811Z,21.50
2022-12-03T21:21:49.561Z,18.53
2022-12-03T21:24:16.399Z,18.93
2022-12-03T21:26:45.009Z,17.40
2022-12-03T21:29:11.816Z,18.57
2022-12-03T21:31:39.906Z,18.87
2022-12-03T21:34:08.519Z,16.93
2022-12-03T21:36:35.706Z,19.43
2022-12-03T21:39:03.193Z,17.87
2022-12-03T21:41:30.473Z,18.70
2022-12-03T21:43:57.238Z,18.87
2022-12-03T21:47:11.088Z,17.17
2022-12-03T21:49:10.738Z,17.70
2022-12-03T21:51:37.638Z,16.83
2022-12-03T21:54:04.789Z,18.77
2022-12-03T21:56:33.911Z,16.93
2022-12-03T21:59:00.629Z,19.23
2022-12-03T22:01:27.501Z,19.33
2022-12-03T22:03:54.353Z,16.13
2022-12-03T22:06:21.441Z,19.23
2022-12-03T22:08:49.657Z,13.90
2022-12-03T22:11:19.419Z,19.00
2022-12-03T22:13:46.421Z,17.87
2022-12-03T22:16:18.392Z,18.03
2022-12-03T22:18:46.251Z,19.47
2022-12-03T22:21:15.936Z,18.80
2022-12-03T22:23:42.672Z,16.53
2022-12-03T22:26:12.958Z,19.33
2022-12-03T22:28:43.737Z,18.47
2022-12-03T22:31:11.699Z,17.13
2022-12-03T22:33:38.979Z,15.93
2022-12-03T22:36:08.649Z,11.07
2022-12-03T22:38:35.558Z,17.93
2022-12-03T22:41:07.682Z,17.73
2022-12-03T22:43:38.753Z,19.63
2022-12-03T22:46:07.636Z,18.20
2022-12-03T22:48:36.528Z,17.93
2022-12-03T22:51:10.233Z,18.60
2022-12-03T22:53:37.446Z,19.37
2022-12-03T22:56:05.161Z,19.23
2022-12-03T22:58:32.136Z,20.10
2022-12-03T23:01:02.957Z,19.27
2022-12-03T23:03:30.993Z,19.90
2022-12-03T23:05:57.807Z,19.13
2022-12-03T23:08:24.592Z,18.53
2022-12-03T23:10:52.751Z,18.13
2022-12-03T23:13:20.566Z,18.30
2022-12-03T23:15:51.927Z,18.77
2022-12-03T23:18:20.550Z,19.07
2022-12-03T23:20:50.210Z,18.60
2022-12-03T23:23:18.899Z,19.10
2022-12-03T23:25:59.646Z,16.77
2022-12-03T23:28:28.100Z,19.23
2022-12-03T23:30:55.269Z,19.80
2022-12-03T23:33:23.382Z,17.80
2022-12-03T23:35:51.410Z,19.80
2022-12-03T23:38:19.243Z,17.50
2022-12-03T23:40:48.275Z,17.80
2022-12-03T23:43:16.286Z,18.80
2022-12-03T23:45:43.149Z,18.57
2022-12-03T23:48:09.845Z,17.57
2022-12-03T23:50:40.068Z,19.20
2022-12-03T23:53:07.094Z,18.93
2022-12-03T23:55:34.258Z,17.53
2022-12-03T23:58:01.135Z,19.23
